Mitteilungen - Kartenansicht · Info · Telemetrie · Wetter · Rohdaten · Status · Baken · Mitteilungen · Nachrichten · durchsuchen · bewegend · Mein Benutzerkonto
Rufzeichen:
Zeige:

Lade message Pakete...

APRS Mitteilungen werden für 14 Tage gespeichert. Es ist möglich bei der Suche einen Platzhalter (*?) nach dem Präfix zu verwenden.

2019-05-25 05:33:55 EDT: EMAIL-2>M0GQT-9: Email sent to butterflyrussell69@gmail.com
2019-05-25 05:33:55 EDT: M0GQT-9>WXBOT: EGLL
2019-05-25 05:34:01 EDT: WXBOT>M0GQT-9: EGLL 250920Z AUTO 29007KT 240V340 9999 SCT025 18/12 Q1019
2019-05-25 05:34:01 EDT: DO6GZ-9>DB1NTO-2: Ok{35{34
2019-05-25 05:34:01 EDT: DO6GZ-9>DB1NTO-2: Ok{34{33
2019-05-25 05:34:02 EDT: DO6GZ-9>DB1NTO-2: Ok{33{32
2019-05-25 05:34:55 EDT: EMAIL-2>M0GQT-9: Email sent to butterflyrussell69@gmail.com
2019-05-25 05:34:57 EDT: VK2GJ-6>VK2GJ-7: Directs=VK2AMW-1
2019-05-25 05:35:00 EDT: LA9GHA-7>DB1NTO-2: PicoAPRS Check Update Version013
2019-05-25 05:35:00 EDT: DB1NTO-2>LA9GHA-7: Firmware update 014 available! Look at www.db1nto.de
2019-05-25 05:35:00 EDT: DO6GZ-9>DB1NTO-2: Ok
2019-05-25 05:35:11 EDT: M0GQT-9>WXBOT: EGLL
2019-05-25 05:35:17 EDT: WXBOT>M0GQT-9: EGLL 250920Z AUTO 29007KT 240V340 9999 SCT025 18/12 Q1019
2019-05-25 05:35:31 EDT: VK2GJ-5>VK2GJ-7: Directs=VK2BWI-3 VK2AMW-1
2019-05-25 05:35:38 EDT: VK2GJ-2>VK2GJ-7: Directs=VK2BWI-3 VK2AMW-1
2019-05-25 05:35:40 EDT: JG6YCL>JA6IJW-9: %JG6XRN-7 JA6IJW-9, 9 km
2019-05-25 05:35:40 EDT: JG6YCL>JE6VDB-9: %JG6XRN-7 JE6VDB-9, 9 km
2019-05-25 05:35:42 EDT: FW0727>FW0727: UPTM.0 days, 08:04:54
2019-05-25 05:35:55 EDT: EMAIL-2>M0GQT-9: Email sent to butterflyrussell69@gmail.com
2019-05-25 05:36:01 EDT: DO6GZ-9>DB1NTO-2: Ok
2019-05-25 05:36:10 EDT: M0GQT-9>EMAIL-2: lr 88
2019-05-25 05:36:17 EDT: M0GQT-9>WXBOT: EGLL
2019-05-25 05:36:23 EDT: WXBOT>M0GQT-9: EGLL 250920Z AUTO 29007KT 240V340 9999 SCT025 18/12 Q1019
2019-05-25 05:36:24 EDT: M0GQT-9>EMAIL-2: lr 88
2019-05-25 05:36:24 EDT: EMAIL-2>M0GQT-9: Email sent to butterflyrussell69@gmail.com
2019-05-25 05:36:34 EDT: M0GQT-9>EMAIL-2: get
2019-05-25 05:36:34 EDT: EMAIL-2>M0GQT-9: No unacked email messages.
2019-05-25 05:37:00 EDT: LA9GHA-7>DB1NTO-2: PicoAPRS Check Update Version013
2019-05-25 05:37:00 EDT: DB1NTO-2>LA9GHA-7: Firmware update 014 available! Look at www.db1nto.de
2019-05-25 05:37:00 EDT: DO6GZ-9>DB1NTO-2: Ok
2019-05-25 05:37:20 EDT: F1SRC-5>F5LWX-5: pas loin du bac sur la loire. 73
2019-05-25 05:37:20 EDT: TOPFFW>NWS-WARN: 251300z,FLASH_FLOOD,KSC085-087-149-177-197
2019-05-25 05:37:20 EDT: TOPFFW>NWS_WARN: 251300z,FLASH_FLOOD,KSC085-087-149-177-197
2019-05-25 05:37:28 EDT: KM4KAW-9>KM4KAW: SitRep: 10.2892 63.61f
2019-05-25 05:37:29 EDT: KM4KAW-9>KM4KAW: SitRep: 10.32468 63.72f
2019-05-25 05:38:00 EDT: DO6GZ-9>DB1NTO-2: Ok
2019-05-25 05:38:14 EDT: DO2HKR-5>DL8MA: Test Nachricht von Kristian DO2HKR
2019-05-25 05:38:14 EDT: DO2HKR-5>DL8MA-7: Test Nachricht von Kristian DO2HKR
2019-05-25 05:38:20 EDT: DL7AD-15>DL7AD-15: Directs=DL7AD-9
2019-05-25 05:38:25 EDT: M0GQT-9>CQSRVR: ?
2019-05-25 05:38:25 EDT: CQSRVR>M0GQT-9: No active groups.
2019-05-25 05:38:38 EDT: VK2GJ-2>VK2GJ-7: Directs=VK2BWI-3 VK2AMW-1 VK2RHR-1
2019-05-25 05:39:06 EDT: JG1RBF-9>JP1XOC-8: Ga
2019-05-25 05:39:25 EDT: CQSRVR>M0GQT-9: No active groups.
2019-05-25 05:40:20 EDT: EAXFFW>NWS-WARN: 250945z,FLASH_FLOOD,KSC005-MOC021-165
2019-05-25 05:40:20 EDT: EAXFFW>NWS_WARN: 250945z,FLASH_FLOOD,KSC005-MOC021-165
2019-05-25 05:40:20 EDT: STOFFW>NWS-WARN: 251045z,FLASH_FLOOD,CAC007
2019-05-25 05:40:20 EDT: STOFFW>NWS_WARN: 251045z,FLASH_FLOOD,CAC007
2019-05-25 05:40:25 EDT: CQSRVR>M0GQT-9: No active groups.
2019-05-25 05:40:47 EDT: JE6WWZ-9>JA6IJW-9: o2!
< vorhergehender
FAQ · Blog · Diskussionsgruppe · Link zu aprs.fi · AIS-Sites · Status des Servers · Datenbank Statistiken · Werbe auf aprs.fi · Technische Details · API · Änderungen · geplante Änderungen · Dank an · Nutzungsbedingungen · iPhone/iPad APRS